sensor_id;sensor_type;location;lat;lon;timestamp;temperature;humidity
51327;DHT22;37412;52.836;6.362;2023-05-23T00:02:19;15.10;99.90
51327;DHT22;37412;52.836;6.362;2023-05-23T00:05:05;14.50;99.90
51327;DHT22;37412;52.836;6.362;2023-05-23T00:07:52;14.50;99.90
51327;DHT22;37412;52.836;6.362;2023-05-23T00:10:38;14.50;99.90
51327;DHT22;37412;52.836;6.362;2023-05-23T00:13:24;14.50;99.90
51327;DHT22;37412;52.836;6.362;2023-05-23T00:16:10;15.10;99.90
51327;DHT22;37412;52.836;6.362;2023-05-23T00:18:56;14.50;99.90
51327;DHT22;37412;52.836;6.362;2023-05-23T00:21:46;14.40;99.90
51327;DHT22;37412;52.836;6.362;2023-05-23T00:24:35;14.30;99.90
51327;DHT22;37412;52.836;6.362;2023-05-23T00:27:21;14.30;99.90
51327;DHT22;37412;52.836;6.362;2023-05-23T00:30:07;14.30;99.90
51327;DHT22;37412;52.836;6.362;2023-05-23T00:32:54;14.20;99.90
51327;DHT22;37412;52.836;6.362;2023-05-23T00:35:40;14.20;99.90
51327;DHT22;37412;52.836;6.362;2023-05-23T00:38:27;14.20;99.90
51327;DHT22;37412;52.836;6.362;2023-05-23T00:41:13;14.10;99.90
51327;DHT22;37412;52.836;6.362;2023-05-23T00:43:59;14.10;99.90
51327;DHT22;37412;52.836;6.362;2023-05-23T00:46:47;14.10;99.90
51327;DHT22;37412;52.836;6.362;2023-05-23T00:49:34;14.10;99.90
51327;DHT22;37412;52.836;6.362;2023-05-23T00:52:20;14.10;99.90
51327;DHT22;37412;52.836;6.362;2023-05-23T00:55:07;14.10;99.90
51327;DHT22;37412;52.836;6.362;2023-05-23T00:57:54;14.10;99.90
51327;DHT22;37412;52.836;6.362;2023-05-23T01:00:42;14.00;99.90
51327;DHT22;37412;52.836;6.362;2023-05-23T01:03:29;14.00;99.90
51327;DHT22;37412;52.836;6.362;2023-05-23T01:06:15;14.00;99.90
51327;DHT22;37412;52.836;6.362;2023-05-23T01:09:02;14.00;99.90
51327;DHT22;37412;52.836;6.362;2023-05-23T01:12:13;14.00;99.90
51327;DHT22;37412;52.836;6.362;2023-05-23T01:15:05;14.00;99.90
51327;DHT22;37412;52.836;6.362;2023-05-23T01:18:06;14.00;99.90
51327;DHT22;37412;52.836;6.362;2023-05-23T01:21:14;14.00;99.90
51327;DHT22;37412;52.836;6.362;2023-05-23T01:27:59;13.90;99.90
51327;DHT22;37412;52.836;6.362;2023-05-23T01:30:47;13.90;99.90
51327;DHT22;37412;52.836;6.362;2023-05-23T01:33:37;14.20;99.90
51327;DHT22;37412;52.836;6.362;2023-05-23T01:36:24;13.90;99.90
51327;DHT22;37412;52.836;6.362;2023-05-23T01:39:10;13.80;99.90
51327;DHT22;37412;52.836;6.362;2023-05-23T01:41:57;13.80;99.90
51327;DHT22;37412;52.836;6.362;2023-05-23T01:44:44;13.80;99.90
51327;DHT22;37412;52.836;6.362;2023-05-23T01:47:31;13.80;99.90
51327;DHT22;37412;52.836;6.362;2023-05-23T01:50:17;13.70;99.90
51327;DHT22;37412;52.836;6.362;2023-05-23T01:53:04;13.70;99.90
51327;DHT22;37412;52.836;6.362;2023-05-23T01:55:51;13.70;99.90
51327;DHT22;37412;52.836;6.362;2023-05-23T01:58:37;13.70;99.90
51327;DHT22;37412;52.836;6.362;2023-05-23T02:01:23;13.70;99.90
51327;DHT22;37412;52.836;6.362;2023-05-23T02:04:10;13.70;99.90
51327;DHT22;37412;52.836;6.362;2023-05-23T02:06:56;13.70;99.90
51327;DHT22;37412;52.836;6.362;2023-05-23T02:09:42;13.70;99.90
51327;DHT22;37412;52.836;6.362;2023-05-23T02:12:29;13.60;99.90
51327;DHT22;37412;52.836;6.362;2023-05-23T02:15:15;13.60;99.90
51327;DHT22;37412;52.836;6.362;2023-05-23T02:18:02;13.60;99.90
51327;DHT22;37412;52.836;6.362;2023-05-23T02:20:48;13.50;99.90
51327;DHT22;37412;52.836;6.362;2023-05-23T02:23:34;13.50;99.90
51327;DHT22;37412;52.836;6.362;2023-05-23T02:26:20;13.50;99.90
51327;DHT22;37412;52.836;6.362;2023-05-23T02:29:09;13.40;99.90
51327;DHT22;37412;52.836;6.362;2023-05-23T02:31:55;13.40;99.90
51327;DHT22;37412;52.836;6.362;2023-05-23T02:34:41;13.40;99.90
51327;DHT22;37412;52.836;6.362;2023-05-23T02:37:31;13.40;99.90
51327;DHT22;37412;52.836;6.362;2023-05-23T02:40:17;13.30;99.90
51327;DHT22;37412;52.836;6.362;2023-05-23T02:43:02;13.30;99.90
51327;DHT22;37412;52.836;6.362;2023-05-23T02:45:48;13.30;99.90
51327;DHT22;37412;52.836;6.362;2023-05-23T02:48:34;13.20;99.90
51327;DHT22;37412;52.836;6.362;2023-05-23T02:51:20;13.20;99.90
51327;DHT22;37412;52.836;6.362;2023-05-23T02:54:06;13.10;99.90
51327;DHT22;37412;52.836;6.362;2023-05-23T02:56:52;13.10;99.90
51327;DHT22;37412;52.836;6.362;2023-05-23T02:59:39;13.00;99.90
51327;DHT22;37412;52.836;6.362;2023-05-23T03:02:25;13.00;99.90
51327;DHT22;37412;52.836;6.362;2023-05-23T03:05:11;13.10;99.90
51327;DHT22;37412;52.836;6.362;2023-05-23T03:07:57;13.10;99.90
51327;DHT22;37412;52.836;6.362;2023-05-23T03:10:44;13.00;99.90
51327;DHT22;37412;52.836;6.362;2023-05-23T03:13:32;13.00;99.90
51327;DHT22;37412;52.836;6.362;2023-05-23T03:16:18;13.00;99.90
51327;DHT22;37412;52.836;6.362;2023-05-23T03:19:04;13.00;99.90
51327;DHT22;37412;52.836;6.362;2023-05-23T03:21:50;13.00;99.90
51327;DHT22;37412;52.836;6.362;2023-05-23T03:24:37;13.00;99.90
51327;DHT22;37412;52.836;6.362;2023-05-23T03:27:22;13.00;99.90
51327;DHT22;37412;52.836;6.362;2023-05-23T03:30:09;13.00;99.90
51327;DHT22;37412;52.836;6.362;2023-05-23T03:32:55;13.00;99.90
51327;DHT22;37412;52.836;6.362;2023-05-23T03:35:41;13.00;99.90
51327;DHT22;37412;52.836;6.362;2023-05-23T03:38:29;13.00;99.90
51327;DHT22;37412;52.836;6.362;2023-05-23T03:41:15;13.00;99.90
51327;DHT22;37412;52.836;6.362;2023-05-23T03:44:01;13.00;99.90
51327;DHT22;37412;52.836;6.362;2023-05-23T03:46:48;13.00;99.90
51327;DHT22;37412;52.836;6.362;2023-05-23T03:49:34;12.90;99.90
51327;DHT22;37412;52.836;6.362;2023-05-23T03:52:20;13.00;99.90
51327;DHT22;37412;52.836;6.362;2023-05-23T03:55:06;12.90;99.90
51327;DHT22;37412;52.836;6.362;2023-05-23T03:57:54;12.90;99.90
51327;DHT22;37412;52.836;6.362;2023-05-23T04:00:40;12.90;99.90
51327;DHT22;37412;52.836;6.362;2023-05-23T04:03:26;12.90;99.90
51327;DHT22;37412;52.836;6.362;2023-05-23T04:06:12;12.90;99.90
51327;DHT22;37412;52.836;6.362;2023-05-23T04:08:58;12.90;99.90
51327;DHT22;37412;52.836;6.362;2023-05-23T04:11:44;12.90;99.90
51327;DHT22;37412;52.836;6.362;2023-05-23T04:14:29;12.10;99.90
51327;DHT22;37412;52.836;6.362;2023-05-23T04:17:18;12.80;99.90
51327;DHT22;37412;52.836;6.362;2023-05-23T04:20:08;12.80;99.90
51327;DHT22;37412;52.836;6.362;2023-05-23T04:22:57;12.80;99.90
51327;DHT22;37412;52.836;6.362;2023-05-23T04:25:43;12.80;99.90
51327;DHT22;37412;52.836;6.362;2023-05-23T04:28:29;12.70;99.90
51327;DHT22;37412;52.836;6.362;2023-05-23T04:31:15;12.70;99.90
51327;DHT22;37412;52.836;6.362;2023-05-23T04:34:01;12.70;99.90
51327;DHT22;37412;52.836;6.362;2023-05-23T04:36:47;12.60;99.90
51327;DHT22;37412;52.836;6.362;2023-05-23T04:39:34;12.60;99.90
51327;DHT22;37412;52.836;6.362;2023-05-23T04:42:20;12.50;99.90
51327;DHT22;37412;52.836;6.362;2023-05-23T04:45:09;12.50;99.90
51327;DHT22;37412;52.836;6.362;2023-05-23T04:47:56;12.40;99.90
51327;DHT22;37412;52.836;6.362;2023-05-23T04:50:42;12.40;99.90
51327;DHT22;37412;52.836;6.362;2023-05-23T04:53:29;12.30;99.90
51327;DHT22;37412;52.836;6.362;2023-05-23T04:56:15;12.30;99.90
51327;DHT22;37412;52.836;6.362;2023-05-23T04:59:02;12.30;99.90
51327;DHT22;37412;52.836;6.362;2023-05-23T05:01:48;12.30;99.90
51327;DHT22;37412;52.836;6.362;2023-05-23T05:04:34;12.30;99.90
51327;DHT22;37412;52.836;6.362;2023-05-23T05:07:20;12.20;99.90
51327;DHT22;37412;52.836;6.362;2023-05-23T05:10:07;12.20;99.90
51327;DHT22;37412;52.836;6.362;2023-05-23T05:12:54;12.20;99.90
51327;DHT22;37412;52.836;6.362;2023-05-23T05:15:39;12.00;99.90
51327;DHT22;37412;52.836;6.362;2023-05-23T05:18:26;12.20;99.90
51327;DHT22;37412;52.836;6.362;2023-05-23T05:21:12;12.10;99.90
51327;DHT22;37412;52.836;6.362;2023-05-23T05:23:58;12.20;99.90
51327;DHT22;37412;52.836;6.362;2023-05-23T05:26:46;12.10;99.90
51327;DHT22;37412;52.836;6.362;2023-05-23T05:29:32;12.00;99.90
51327;DHT22;37412;52.836;6.362;2023-05-23T05:32:18;12.00;99.90
51327;DHT22;37412;52.836;6.362;2023-05-23T05:35:04;12.00;99.90
51327;DHT22;37412;52.836;6.362;2023-05-23T05:37:53;11.90;99.90
51327;DHT22;37412;52.836;6.362;2023-05-23T05:40:39;11.90;99.90
51327;DHT22;37412;52.836;6.362;2023-05-23T05:43:25;11.90;99.90
51327;DHT22;37412;52.836;6.362;2023-05-23T05:46:11;11.90;99.90
51327;DHT22;37412;52.836;6.362;2023-05-23T05:48:57;11.90;99.90
51327;DHT22;37412;52.836;6.362;2023-05-23T05:51:43;11.90;99.90
51327;DHT22;37412;52.836;6.362;2023-05-23T05:54:29;11.90;99.90
51327;DHT22;37412;52.836;6.362;2023-05-23T05:57:16;11.90;99.90
51327;DHT22;37412;52.836;6.362;2023-05-23T06:00:02;11.80;99.90
51327;DHT22;37412;52.836;6.362;2023-05-23T06:02:53;11.80;99.90
51327;DHT22;37412;52.836;6.362;2023-05-23T06:05:42;11.80;99.90
51327;DHT22;37412;52.836;6.362;2023-05-23T06:08:27;11.80;99.90
51327;DHT22;37412;52.836;6.362;2023-05-23T06:11:13;11.80;99.90
51327;DHT22;37412;52.836;6.362;2023-05-23T06:14:01;11.80;99.90
51327;DHT22;37412;52.836;6.362;2023-05-23T06:16:50;12.00;99.90
51327;DHT22;37412;52.836;6.362;2023-05-23T06:19:35;12.20;99.90
51327;DHT22;37412;52.836;6.362;2023-05-23T06:22:23;11.80;99.90
51327;DHT22;37412;52.836;6.362;2023-05-23T06:25:09;11.70;99.90
51327;DHT22;37412;52.836;6.362;2023-05-23T06:27:55;11.60;99.90
51327;DHT22;37412;52.836;6.362;2023-05-23T06:30:41;11.70;99.90
51327;DHT22;37412;52.836;6.362;2023-05-23T06:33:27;11.70;99.90
51327;DHT22;37412;52.836;6.362;2023-05-23T06:36:13;11.70;99.90
51327;DHT22;37412;52.836;6.362;2023-05-23T06:38:59;11.70;99.90
51327;DHT22;37412;52.836;6.362;2023-05-23T06:41:46;11.70;99.90
51327;DHT22;37412;52.836;6.362;2023-05-23T06:44:32;11.70;99.90
51327;DHT22;37412;52.836;6.362;2023-05-23T06:47:18;11.70;99.90
51327;DHT22;37412;52.836;6.362;2023-05-23T06:50:04;12.20;99.90
51327;DHT22;37412;52.836;6.362;2023-05-23T06:52:50;11.80;99.90
51327;DHT22;37412;52.836;6.362;2023-05-23T06:55:36;11.80;99.90
51327;DHT22;37412;52.836;6.362;2023-05-23T06:58:22;11.80;99.90
51327;DHT22;37412;52.836;6.362;2023-05-23T07:01:09;11.80;99.90
51327;DHT22;37412;52.836;6.362;2023-05-23T07:03:56;11.90;99.90
51327;DHT22;37412;52.836;6.362;2023-05-23T07:06:42;12.00;99.90
51327;DHT22;37412;52.836;6.362;2023-05-23T07:09:28;12.00;99.90
51327;DHT22;37412;52.836;6.362;2023-05-23T07:12:13;12.10;99.90
51327;DHT22;37412;52.836;6.362;2023-05-23T07:14:59;12.40;99.90
51327;DHT22;37412;52.836;6.362;2023-05-23T07:17:45;12.80;99.90
51327;DHT22;37412;52.836;6.362;2023-05-23T07:20:34;12.90;99.90
51327;DHT22;37412;52.836;6.362;2023-05-23T07:23:22;13.00;99.90
51327;DHT22;37412;52.836;6.362;2023-05-23T07:26:09;13.00;99.90
51327;DHT22;37412;52.836;6.362;2023-05-23T07:28:54;13.00;99.90
51327;DHT22;37412;52.836;6.362;2023-05-23T07:31:40;13.00;99.90
51327;DHT22;37412;52.836;6.362;2023-05-23T07:34:26;13.00;99.90
51327;DHT22;37412;52.836;6.362;2023-05-23T07:37:12;12.90;99.90
51327;DHT22;37412;52.836;6.362;2023-05-23T07:39:59;13.00;99.90
51327;DHT22;37412;52.836;6.362;2023-05-23T07:42:45;13.10;99.90
51327;DHT22;37412;52.836;6.362;2023-05-23T07:45:31;13.00;99.90
51327;DHT22;37412;52.836;6.362;2023-05-23T07:48:17;12.90;99.90
51327;DHT22;37412;52.836;6.362;2023-05-23T07:51:03;12.80;99.90
51327;DHT22;37412;52.836;6.362;2023-05-23T07:53:49;12.70;99.90
51327;DHT22;37412;52.836;6.362;2023-05-23T07:56:35;12.50;99.90
51327;DHT22;37412;52.836;6.362;2023-05-23T07:59:23;12.50;99.90
51327;DHT22;37412;52.836;6.362;2023-05-23T08:02:09;12.50;99.90
51327;DHT22;37412;52.836;6.362;2023-05-23T08:04:54;12.60;99.90
51327;DHT22;37412;52.836;6.362;2023-05-23T08:07:41;12.70;99.90
51327;DHT22;37412;52.836;6.362;2023-05-23T08:10:27;12.80;99.90
51327;DHT22;37412;52.836;6.362;2023-05-23T08:13:14;12.80;99.90
51327;DHT22;37412;52.836;6.362;2023-05-23T08:16:01;12.80;99.90
51327;DHT22;37412;52.836;6.362;2023-05-23T08:18:46;13.00;99.90
51327;DHT22;37412;52.836;6.362;2023-05-23T08:21:34;13.30;99.90
51327;DHT22;37412;52.836;6.362;2023-05-23T08:24:20;13.70;99.90
51327;DHT22;37412;52.836;6.362;2023-05-23T08:27:06;13.80;99.90
51327;DHT22;37412;52.836;6.362;2023-05-23T08:29:52;13.80;99.90
51327;DHT22;37412;52.836;6.362;2023-05-23T08:32:40;13.80;99.90
51327;DHT22;37412;52.836;6.362;2023-05-23T08:35:26;13.70;99.90
51327;DHT22;37412;52.836;6.362;2023-05-23T08:38:14;13.60;99.90
51327;DHT22;37412;52.836;6.362;2023-05-23T08:41:00;13.60;99.90
51327;DHT22;37412;52.836;6.362;2023-05-23T08:43:47;13.60;99.90
51327;DHT22;37412;52.836;6.362;2023-05-23T08:46:38;13.70;99.90
51327;DHT22;37412;52.836;6.362;2023-05-23T08:49:25;13.70;99.90
51327;DHT22;37412;52.836;6.362;2023-05-23T08:52:11;13.80;99.90
51327;DHT22;37412;52.836;6.362;2023-05-23T08:55:00;14.20;99.90
51327;DHT22;37412;52.836;6.362;2023-05-23T08:57:46;15.00;99.90
51327;DHT22;37412;52.836;6.362;2023-05-23T09:00:32;15.60;99.90
51327;DHT22;37412;52.836;6.362;2023-05-23T09:03:19;15.70;99.90
51327;DHT22;37412;52.836;6.362;2023-05-23T09:06:05;15.60;99.90
51327;DHT22;37412;52.836;6.362;2023-05-23T09:08:55;15.40;99.90
51327;DHT22;37412;52.836;6.362;2023-05-23T09:11:41;15.40;99.90
51327;DHT22;37412;52.836;6.362;2023-05-23T09:14:30;15.30;99.90
51327;DHT22;37412;52.836;6.362;2023-05-23T09:17:20;15.10;99.90
51327;DHT22;37412;52.836;6.362;2023-05-23T09:20:14;15.00;99.90
51327;DHT22;37412;52.836;6.362;2023-05-23T09:23:04;15.00;99.90
51327;DHT22;37412;52.836;6.362;2023-05-23T09:25:50;15.20;99.90
51327;DHT22;37412;52.836;6.362;2023-05-23T09:28:39;15.50;99.90
51327;DHT22;37412;52.836;6.362;2023-05-23T09:31:26;15.90;99.90
51327;DHT22;37412;52.836;6.362;2023-05-23T09:34:15;16.30;99.90
51327;DHT22;37412;52.836;6.362;2023-05-23T09:37:01;16.30;99.90
51327;DHT22;37412;52.836;6.362;2023-05-23T09:39:48;16.60;99.90
51327;DHT22;37412;52.836;6.362;2023-05-23T09:42:34;16.90;99.90
51327;DHT22;37412;52.836;6.362;2023-05-23T09:45:20;16.80;99.90
51327;DHT22;37412;52.836;6.362;2023-05-23T09:48:13;16.70;99.90
51327;DHT22;37412;52.836;6.362;2023-05-23T09:51:03;16.60;99.90
51327;DHT22;37412;52.836;6.362;2023-05-23T09:53:50;16.30;99.90
51327;DHT22;37412;52.836;6.362;2023-05-23T09:56:39;15.90;99.90
51327;DHT22;37412;52.836;6.362;2023-05-23T09:59:30;15.60;99.90
51327;DHT22;37412;52.836;6.362;2023-05-23T10:08:31;16.20;99.90
51327;DHT22;37412;52.836;6.362;2023-05-23T10:14:54;16.20;99.90
51327;DHT22;37412;52.836;6.362;2023-05-23T10:20:48;16.50;99.90
51327;DHT22;37412;52.836;6.362;2023-05-23T10:23:37;16.40;99.90
51327;DHT22;37412;52.836;6.362;2023-05-23T10:26:24;16.30;99.90
51327;DHT22;37412;52.836;6.362;2023-05-23T10:29:10;16.20;99.90
51327;DHT22;37412;52.836;6.362;2023-05-23T10:31:57;16.20;99.90
51327;DHT22;37412;52.836;6.362;2023-05-23T10:37:41;16.40;99.90
51327;DHT22;37412;52.836;6.362;2023-05-23T10:43:54;16.30;99.90
51327;DHT22;37412;52.836;6.362;2023-05-23T10:47:24;16.00;99.90
51327;DHT22;37412;52.836;6.362;2023-05-23T10:50:15;15.90;99.90
51327;DHT22;37412;52.836;6.362;2023-05-23T10:53:03;15.80;99.90
51327;DHT22;37412;52.836;6.362;2023-05-23T10:55:49;15.80;99.90
51327;DHT22;37412;52.836;6.362;2023-05-23T10:58:38;15.80;99.90
51327;DHT22;37412;52.836;6.362;2023-05-23T11:01:24;15.60;99.90
51327;DHT22;37412;52.836;6.362;2023-05-23T11:04:11;15.60;99.90
51327;DHT22;37412;52.836;6.362;2023-05-23T11:06:57;15.50;99.90
51327;DHT22;37412;52.836;6.362;2023-05-23T11:10:09;15.50;99.90
51327;DHT22;37412;52.836;6.362;2023-05-23T11:13:05;15.60;99.90
51327;DHT22;37412;52.836;6.362;2023-05-23T11:15:51;15.80;99.90
51327;DHT22;37412;52.836;6.362;2023-05-23T11:18:37;15.90;99.90
51327;DHT22;37412;52.836;6.362;2023-05-23T11:21:23;15.90;99.90
51327;DHT22;37412;52.836;6.362;2023-05-23T11:24:09;16.00;99.90
51327;DHT22;37412;52.836;6.362;2023-05-23T11:26:59;16.00;99.90
51327;DHT22;37412;52.836;6.362;2023-05-23T11:30:17;16.10;99.90
51327;DHT22;37412;52.836;6.362;2023-05-23T11:33:21;16.00;99.90
51327;DHT22;37412;52.836;6.362;2023-05-23T11:36:07;16.20;99.90
51327;DHT22;37412;52.836;6.362;2023-05-23T11:38:54;16.40;99.90
51327;DHT22;37412;52.836;6.362;2023-05-23T11:41:41;16.40;99.90
51327;DHT22;37412;52.836;6.362;2023-05-23T11:44:28;16.20;99.90
51327;DHT22;37412;52.836;6.362;2023-05-23T11:47:14;16.30;99.90
51327;DHT22;37412;52.836;6.362;2023-05-23T11:50:00;16.30;99.90
51327;DHT22;37412;52.836;6.362;2023-05-23T11:52:46;16.50;99.90
51327;DHT22;37412;52.836;6.362;2023-05-23T11:55:38;16.80;99.90
51327;DHT22;37412;52.836;6.362;2023-05-23T11:58:27;16.80;99.90
51327;DHT22;37412;52.836;6.362;2023-05-23T12:01:13;16.60;99.90
51327;DHT22;37412;52.836;6.362;2023-05-23T12:03:59;16.50;99.90
51327;DHT22;37412;52.836;6.362;2023-05-23T12:06:54;16.60;99.90
51327;DHT22;37412;52.836;6.362;2023-05-23T12:09:44;16.90;99.90
51327;DHT22;37412;52.836;6.362;2023-05-23T12:12:31;17.00;99.90
51327;DHT22;37412;52.836;6.362;2023-05-23T12:15:17;17.00;99.90
51327;DHT22;37412;52.836;6.362;2023-05-23T12:18:03;16.80;99.90
51327;DHT22;37412;52.836;6.362;2023-05-23T12:20:49;16.70;99.90
51327;DHT22;37412;52.836;6.362;2023-05-23T12:23:36;16.80;99.90
51327;DHT22;37412;52.836;6.362;2023-05-23T12:26:24;16.90;99.90
51327;DHT22;37412;52.836;6.362;2023-05-23T12:29:10;16.90;99.90
51327;DHT22;37412;52.836;6.362;2023-05-23T12:32:01;16.70;99.90
51327;DHT22;37412;52.836;6.362;2023-05-23T12:34:48;16.50;99.90
51327;DHT22;37412;52.836;6.362;2023-05-23T12:37:37;16.20;99.90
51327;DHT22;37412;52.836;6.362;2023-05-23T12:40:23;16.20;99.90
51327;DHT22;37412;52.836;6.362;2023-05-23T12:43:09;16.70;99.90
51327;DHT22;37412;52.836;6.362;2023-05-23T12:45:55;17.00;99.90
51327;DHT22;37412;52.836;6.362;2023-05-23T12:48:41;17.20;99.90
51327;DHT22;37412;52.836;6.362;2023-05-23T12:51:27;17.20;99.90
51327;DHT22;37412;52.836;6.362;2023-05-23T12:54:13;17.10;99.90
51327;DHT22;37412;52.836;6.362;2023-05-23T12:56:59;17.20;99.90
51327;DHT22;37412;52.836;6.362;2023-05-23T12:59:45;17.00;99.80
51327;DHT22;37412;52.836;6.362;2023-05-23T13:02:31;16.70;99.20
51327;DHT22;37412;52.836;6.362;2023-05-23T13:05:17;16.80;99.10
51327;DHT22;37412;52.836;6.362;2023-05-23T13:08:03;16.70;99.70
51327;DHT22;37412;52.836;6.362;2023-05-23T13:10:52;16.60;99.30
51327;DHT22;37412;52.836;6.362;2023-05-23T13:13:38;16.70;99.90
51327;DHT22;37412;52.836;6.362;2023-05-23T13:16:24;16.60;98.30
51327;DHT22;37412;52.836;6.362;2023-05-23T13:19:10;16.40;99.10
51327;DHT22;37412;52.836;6.362;2023-05-23T13:21:57;16.20;99.90
51327;DHT22;37412;52.836;6.362;2023-05-23T13:24:43;16.10;99.50
51327;DHT22;37412;52.836;6.362;2023-05-23T13:27:29;16.20;99.90
51327;DHT22;37412;52.836;6.362;2023-05-23T13:30:15;16.50;99.90
51327;DHT22;37412;52.836;6.362;2023-05-23T13:33:01;16.60;99.90
51327;DHT22;37412;52.836;6.362;2023-05-23T13:35:48;16.80;99.80
51327;DHT22;37412;52.836;6.362;2023-05-23T13:38:36;17.10;97.90
51327;DHT22;37412;52.836;6.362;2023-05-23T13:41:22;17.50;99.90
51327;DHT22;37412;52.836;6.362;2023-05-23T13:44:08;17.70;98.90
51327;DHT22;37412;52.836;6.362;2023-05-23T13:46:54;17.70;97.50
51327;DHT22;37412;52.836;6.362;2023-05-23T13:49:43;17.50;98.10
51327;DHT22;37412;52.836;6.362;2023-05-23T13:52:29;17.10;97.70
51327;DHT22;37412;52.836;6.362;2023-05-23T13:55:15;17.10;95.80
51327;DHT22;37412;52.836;6.362;2023-05-23T13:58:03;17.00;97.60
51327;DHT22;37412;52.836;6.362;2023-05-23T14:00:49;16.90;97.80
51327;DHT22;37412;52.836;6.362;2023-05-23T14:03:35;17.00;96.90
51327;DHT22;37412;52.836;6.362;2023-05-23T14:06:21;17.20;97.60
51327;DHT22;37412;52.836;6.362;2023-05-23T14:09:07;17.30;97.30
51327;DHT22;37412;52.836;6.362;2023-05-23T14:11:53;17.50;97.60
51327;DHT22;37412;52.836;6.362;2023-05-23T14:14:39;17.70;97.40
51327;DHT22;37412;52.836;6.362;2023-05-23T14:17:26;17.80;96.50
51327;DHT22;37412;52.836;6.362;2023-05-23T14:20:12;17.80;96.90
51327;DHT22;37412;52.836;6.362;2023-05-23T14:22:58;17.80;95.20
51327;DHT22;37412;52.836;6.362;2023-05-23T14:25:44;17.60;97.10
51327;DHT22;37412;52.836;6.362;2023-05-23T14:28:30;17.30;96.20
51327;DHT22;37412;52.836;6.362;2023-05-23T14:31:18;17.00;96.20
51327;DHT22;37412;52.836;6.362;2023-05-23T14:34:06;16.90;97.30
51327;DHT22;37412;52.836;6.362;2023-05-23T14:36:52;17.00;93.50
51327;DHT22;37412;52.836;6.362;2023-05-23T14:39:38;17.10;96.30
51327;DHT22;37412;52.836;6.362;2023-05-23T14:42:24;17.30;95.30
51327;DHT22;37412;52.836;6.362;2023-05-23T14:45:11;17.50;95.70
51327;DHT22;37412;52.836;6.362;2023-05-23T14:47:57;17.30;95.90
51327;DHT22;37412;52.836;6.362;2023-05-23T14:50:43;17.10;95.50
51327;DHT22;37412;52.836;6.362;2023-05-23T14:53:29;16.70;94.50
51327;DHT22;37412;52.836;6.362;2023-05-23T14:56:15;16.40;93.60
51327;DHT22;37412;52.836;6.362;2023-05-23T14:59:01;16.30;95.10
51327;DHT22;37412;52.836;6.362;2023-05-23T15:01:50;16.40;96.10
51327;DHT22;37412;52.836;6.362;2023-05-23T15:04:36;16.50;96.00
51327;DHT22;37412;52.836;6.362;2023-05-23T15:07:22;16.70;95.70
51327;DHT22;37412;52.836;6.362;2023-05-23T15:10:08;17.00;96.50
51327;DHT22;37412;52.836;6.362;2023-05-23T15:12:54;17.00;94.00
51327;DHT22;37412;52.836;6.362;2023-05-23T15:15:43;17.00;93.50
51327;DHT22;37412;52.836;6.362;2023-05-23T15:18:29;16.80;94.30
51327;DHT22;37412;52.836;6.362;2023-05-23T15:21:16;16.70;94.30
51327;DHT22;37412;52.836;6.362;2023-05-23T15:24:02;16.80;94.30
51327;DHT22;37412;52.836;6.362;2023-05-23T15:26:48;16.90;94.90
51327;DHT22;37412;52.836;6.362;2023-05-23T15:29:34;17.10;95.70
51327;DHT22;37412;52.836;6.362;2023-05-23T15:32:24;17.20;95.10
51327;DHT22;37412;52.836;6.362;2023-05-23T15:35:10;17.20;95.20
51327;DHT22;37412;52.836;6.362;2023-05-23T15:37:56;17.20;94.90
51327;DHT22;37412;52.836;6.362;2023-05-23T15:40:42;17.30;95.20
51327;DHT22;37412;52.836;6.362;2023-05-23T15:43:28;17.30;94.90
51327;DHT22;37412;52.836;6.362;2023-05-23T15:46:15;17.20;94.80
51327;DHT22;37412;52.836;6.362;2023-05-23T15:49:02;16.90;94.50
51327;DHT22;37412;52.836;6.362;2023-05-23T15:51:51;16.60;94.00
51327;DHT22;37412;52.836;6.362;2023-05-23T15:54:38;16.40;94.60
51327;DHT22;37412;52.836;6.362;2023-05-23T15:57:24;16.20;94.10
51327;DHT22;37412;52.836;6.362;2023-05-23T16:00:10;16.00;93.00
51327;DHT22;37412;52.836;6.362;2023-05-23T16:02:56;15.80;94.70
51327;DHT22;37412;52.836;6.362;2023-05-23T16:05:42;15.50;94.40
51327;DHT22;37412;52.836;6.362;2023-05-23T16:08:28;15.30;94.50
51327;DHT22;37412;52.836;6.362;2023-05-23T16:11:14;15.20;94.50
51327;DHT22;37412;52.836;6.362;2023-05-23T16:14:00;15.00;94.90
51327;DHT22;37412;52.836;6.362;2023-05-23T16:16:46;14.90;94.00
51327;DHT22;37412;52.836;6.362;2023-05-23T16:19:32;14.90;95.00
51327;DHT22;37412;52.836;6.362;2023-05-23T16:22:18;15.00;94.80
51327;DHT22;37412;52.836;6.362;2023-05-23T16:25:04;15.20;94.50
51327;DHT22;37412;52.836;6.362;2023-05-23T16:27:51;15.20;93.80
51327;DHT22;37412;52.836;6.362;2023-05-23T16:30:37;15.20;94.70
51327;DHT22;37412;52.836;6.362;2023-05-23T16:33:22;15.30;94.60
51327;DHT22;37412;52.836;6.362;2023-05-23T16:36:08;15.50;95.30
51327;DHT22;37412;52.836;6.362;2023-05-23T16:38:54;15.60;95.60
51327;DHT22;37412;52.836;6.362;2023-05-23T16:41:40;15.50;96.00
51327;DHT22;37412;52.836;6.362;2023-05-23T16:44:26;15.50;94.80
51327;DHT22;37412;52.836;6.362;2023-05-23T16:47:12;15.50;96.50
51327;DHT22;37412;52.836;6.362;2023-05-23T16:49:58;15.60;96.70
51327;DHT22;37412;52.836;6.362;2023-05-23T16:52:44;15.60;96.00
51327;DHT22;37412;52.836;6.362;2023-05-23T16:55:31;15.60;96.20
51327;DHT22;37412;52.836;6.362;2023-05-23T16:58:17;15.60;95.30
51327;DHT22;37412;52.836;6.362;2023-05-23T17:01:03;15.50;93.30
51327;DHT22;37412;52.836;6.362;2023-05-23T17:03:49;15.30;94.00
51327;DHT22;37412;52.836;6.362;2023-05-23T17:06:35;15.10;94.30
51327;DHT22;37412;52.836;6.362;2023-05-23T17:09:21;14.90;95.00
51327;DHT22;37412;52.836;6.362;2023-05-23T17:12:07;14.80;95.20
51327;DHT22;37412;52.836;6.362;2023-05-23T17:14:56;14.70;94.90
51327;DHT22;37412;52.836;6.362;2023-05-23T17:17:42;14.50;94.90
51327;DHT22;37412;52.836;6.362;2023-05-23T17:20:28;14.40;95.50
51327;DHT22;37412;52.836;6.362;2023-05-23T17:23:14;14.20;95.10
51327;DHT22;37412;52.836;6.362;2023-05-23T17:26:00;14.10;95.50
51327;DHT22;37412;52.836;6.362;2023-05-23T17:28:46;14.10;95.80
51327;DHT22;37412;52.836;6.362;2023-05-23T17:31:32;14.20;95.40
51327;DHT22;37412;52.836;6.362;2023-05-23T17:34:18;14.10;96.00
51327;DHT22;37412;52.836;6.362;2023-05-23T17:37:04;14.20;95.50
51327;DHT22;37412;52.836;6.362;2023-05-23T17:39:50;14.10;95.40
51327;DHT22;37412;52.836;6.362;2023-05-23T17:42:37;14.10;95.60
51327;DHT22;37412;52.836;6.362;2023-05-23T17:45:23;14.00;95.40
51327;DHT22;37412;52.836;6.362;2023-05-23T17:48:09;14.00;96.30
51327;DHT22;37412;52.836;6.362;2023-05-23T17:50:56;13.90;96.60
51327;DHT22;37412;52.836;6.362;2023-05-23T17:53:41;13.90;96.10
51327;DHT22;37412;52.836;6.362;2023-05-23T17:56:27;13.70;96.00
51327;DHT22;37412;52.836;6.362;2023-05-23T17:59:13;13.60;96.70